VYYY/RGN METAR and TAF weather

Enter ICAO airport designator
Station Type Date Time Source
VYYY METAR 2019/12/09 06:00 UTC NOAA

VYYY 090600Z 05005KT 8000 NSC 27/13 Q1014 NOSIG


Station Type Date Time Source
VYYY Decoded METAR 2019/12/09 06:00 UTC NOAA

Yangon, Myanmar (VYYY) 16-46N 096-10E 15M
Dec 09, 2019 - 01:00 AM EST / 2019.12.09 0600 UTC
Wind: from the NE (050 degrees) at 6 MPH (5 KT):0
Visibility: 4 mile(s):0
Temperature: 80 F (27 C)
Dew Point: 55 F (13 C)
Relative Humidity: 41%
Pressure (altimeter): 29.94 in. Hg (1014 hPa)
ob: VYYY 090600Z 05005KT 8000 NSC 27/13 Q1014 NOSIG
cycle: 6

Station Type Date Time Source
VYYY TAF 2019/12/09 06:39 UTC NOAA

TAF TAF VYYY 090500Z 0906/1006 06004KT 8000 NSC
TEMPO 0906/0912 05006KT 8000 NSC

Example: see airport list